Garwood, New Jersey
Current Conditions -  °F | °C
As of 1:55 AM on Thursday 27 Nov 2014 (Local Time) from KLDJ Reporting Station
Overcast Overcast  
Wind Chill: 36°   Ceiling: 7000
Heat Index: 40°   Visibility: 10mi
Dew Point: 36°   Wind: 6mph
Humidity: 84%   Direction: 280°W
Pressure: 29.93"   Gusts: NA
Location:  40.66°N, 74.32°W
Report Text: KLDJ 270655Z AUTO 28005KT 10SM SCT020 OVC070 05/02 A2993 RMK AO2 T00450020
Loading
Personal Weather Stations






























Interactive Weather Map New forecast layout! Learn more

10-Day Weather Forecast

Advertisements
Track Severe Weather on mobile